createdAt,value
2023-06-17T00:00:10.847Z,6.80
2023-06-17T00:02:59.478Z,7.90
2023-06-17T00:05:27.727Z,7.10
2023-06-17T00:07:55.771Z,6.60
2023-06-17T00:10:24.130Z,6.70
2023-06-17T00:12:52.206Z,6.40
2023-06-17T00:15:21.882Z,6.60
2023-06-17T00:17:51.579Z,6.30
2023-06-17T00:20:19.988Z,7.60
2023-06-17T00:22:48.583Z,6.80
2023-06-17T00:25:16.903Z,7.30
2023-06-17T00:27:45.608Z,7.30
2023-06-17T00:30:14.052Z,6.70
2023-06-17T00:32:43.177Z,6.20
2023-06-17T00:35:11.457Z,7.00
2023-06-17T00:37:39.495Z,6.80
2023-06-17T00:40:09.685Z,6.70
2023-06-17T00:45:07.342Z,5.90
2023-06-17T00:47:35.872Z,5.60
2023-06-17T00:50:05.191Z,6.50
2023-06-17T00:52:41.708Z,7.00
2023-06-17T00:57:40.325Z,6.90
2023-06-17T01:00:12.942Z,6.00
2023-06-17T01:02:44.403Z,6.60
2023-06-17T01:05:16.537Z,6.30
2023-06-17T01:08:11.232Z,6.50
2023-06-17T01:11:02.122Z,5.80
2023-06-17T01:13:32.141Z,7.60
2023-06-17T01:16:03.322Z,6.50
2023-06-17T01:18:32.735Z,6.00
2023-06-17T01:21:01.322Z,6.70
2023-06-17T01:23:34.450Z,6.00
2023-06-17T01:26:03.678Z,7.40
2023-06-17T01:28:34.390Z,6.10
2023-06-17T01:31:03.156Z,7.60
2023-06-17T01:33:31.668Z,7.20
2023-06-17T01:36:16.221Z,6.30
2023-06-17T01:38:49.452Z,6.80
2023-06-17T01:41:20.656Z,5.90
2023-06-17T01:43:50.580Z,7.20
2023-06-17T01:46:19.152Z,6.80
2023-06-17T01:48:47.444Z,5.70
2023-06-17T01:51:15.541Z,6.30
2023-06-17T01:53:45.053Z,6.40
2023-06-17T01:56:13.459Z,6.30
2023-06-17T01:58:41.525Z,6.70
2023-06-17T02:01:10.824Z,7.00
2023-06-17T02:03:40.585Z,6.80
2023-06-17T02:06:09.041Z,6.80
2023-06-17T02:08:37.760Z,6.60
2023-06-17T02:11:06.120Z,6.80
2023-06-17T02:13:34.303Z,6.70
2023-06-17T02:16:02.415Z,7.50
2023-06-17T02:18:33.644Z,7.60
2023-06-17T02:21:02.966Z,7.00
2023-06-17T02:23:31.397Z,8.00
2023-06-17T02:25:59.675Z,6.20
2023-06-17T02:28:27.712Z,6.20
2023-06-17T02:30:56.152Z,6.40
2023-06-17T02:33:24.911Z,7.60
2023-06-17T02:35:52.950Z,9.90
2023-06-17T02:38:21.713Z,10.20
2023-06-17T02:40:49.918Z,10.00
2023-06-17T02:43:18.123Z,11.30
2023-06-17T02:45:46.295Z,10.90
2023-06-17T02:48:14.673Z,10.80
2023-06-17T02:50:43.766Z,10.80
2023-06-17T02:53:11.941Z,11.20
2023-06-17T02:55:46.756Z,11.40
2023-06-17T02:58:20.676Z,10.70
2023-06-17T03:00:52.178Z,10.70
2023-06-17T03:03:24.457Z,11.50
2023-06-17T03:05:52.884Z,10.70
2023-06-17T03:08:20.948Z,11.10
2023-06-17T03:10:49.441Z,11.10
2023-06-17T03:13:17.554Z,11.00
2023-06-17T03:15:47.316Z,10.00
2023-06-17T03:18:15.738Z,11.40
2023-06-17T03:20:43.945Z,10.30
2023-06-17T03:23:12.561Z,10.80
2023-06-17T03:25:40.719Z,9.10
2023-06-17T03:28:08.937Z,8.30
2023-06-17T03:30:41.247Z,9.10
2023-06-17T03:33:10.976Z,9.10
2023-06-17T03:35:39.169Z,8.40
2023-06-17T03:38:09.130Z,10.90
2023-06-17T03:40:37.910Z,9.60
2023-06-17T03:43:06.297Z,9.50
2023-06-17T03:45:36.719Z,10.00
2023-06-17T03:48:05.398Z,9.30
2023-06-17T03:50:35.569Z,9.90
2023-06-17T03:53:03.862Z,10.20
2023-06-17T03:55:32.715Z,9.60
2023-06-17T03:58:01.855Z,10.10
2023-06-17T04:00:31.769Z,10.10
2023-06-17T04:03:00.054Z,10.60
2023-06-17T04:08:04.331Z,9.70
2023-06-17T04:10:32.344Z,9.10
2023-06-17T04:13:00.626Z,9.40
2023-06-17T04:15:29.140Z,10.40
2023-06-17T04:17:58.564Z,9.90
2023-06-17T04:20:28.333Z,10.10
2023-06-17T04:22:56.597Z,10.70
2023-06-17T04:25:24.681Z,11.50
2023-06-17T04:27:57.477Z,11.80
2023-06-17T04:30:27.983Z,10.40
2023-06-17T04:33:01.644Z,10.20
2023-06-17T04:35:31.387Z,10.50
2023-06-17T04:38:02.172Z,9.90
2023-06-17T04:40:33.364Z,8.90
2023-06-17T04:43:02.639Z,9.90
2023-06-17T04:45:31.965Z,10.10
2023-06-17T04:50:36.928Z,11.80
2023-06-17T04:53:05.347Z,10.40
2023-06-17T04:55:37.488Z,10.40
2023-06-17T04:58:07.157Z,9.70
2023-06-17T05:00:47.399Z,10.70
2023-06-17T05:03:18.898Z,10.50
2023-06-17T05:05:47.076Z,10.30
2023-06-17T05:08:15.263Z,10.60
2023-06-17T05:10:43.607Z,11.70
2023-06-17T05:13:11.789Z,11.50
2023-06-17T05:15:41.009Z,10.00
2023-06-17T05:18:10.833Z,10.80
2023-06-17T05:20:39.271Z,9.90
2023-06-17T05:23:07.999Z,10.90
2023-06-17T05:25:36.440Z,11.60
2023-06-17T05:28:11.791Z,10.70
2023-06-17T05:30:41.492Z,12.10
2023-06-17T05:33:10.762Z,13.20
2023-06-17T05:35:39.273Z,10.40
2023-06-17T05:38:07.317Z,10.80
2023-06-17T05:40:35.824Z,10.80
2023-06-17T05:43:04.221Z,10.90
2023-06-17T05:45:32.430Z,11.80
2023-06-17T05:48:00.935Z,10.00
2023-06-17T05:50:31.239Z,10.20
2023-06-17T05:53:01.000Z,10.50
2023-06-17T05:55:29.154Z,10.80
2023-06-17T05:57:57.735Z,10.30
2023-06-17T06:00:26.587Z,10.10
2023-06-17T06:02:55.498Z,10.90
2023-06-17T06:05:24.451Z,10.60
2023-06-17T06:07:52.563Z,11.90
2023-06-17T06:10:22.411Z,10.00
2023-06-17T06:12:55.930Z,10.60
2023-06-17T06:15:26.901Z,12.00
2023-06-17T06:20:24.042Z,9.30
2023-06-17T06:22:52.609Z,10.70
2023-06-17T06:25:21.429Z,9.70
2023-06-17T06:27:51.736Z,10.20
2023-06-17T06:30:20.550Z,10.50
2023-06-17T06:32:51.594Z,11.20
2023-06-17T06:35:20.139Z,9.30
2023-06-17T06:37:48.456Z,9.80
2023-06-17T06:40:17.055Z,9.90
2023-06-17T06:42:45.372Z,10.00
2023-06-17T06:45:26.775Z,10.30
2023-06-17T06:47:56.470Z,9.20
2023-06-17T06:50:26.229Z,9.40
2023-06-17T06:52:54.582Z,9.80
2023-06-17T06:55:23.575Z,10.80
2023-06-17T06:57:53.361Z,10.90
2023-06-17T07:00:21.826Z,11.30
2023-06-17T07:02:51.058Z,10.60
2023-06-17T07:05:23.521Z,10.60
2023-06-17T07:07:55.223Z,9.10
2023-06-17T07:10:23.676Z,9.50
2023-06-17T07:12:52.450Z,9.60
2023-06-17T07:15:21.022Z,8.80
2023-06-17T07:17:51.008Z,9.00
2023-06-17T07:20:19.613Z,9.50
2023-06-17T07:22:48.310Z,8.70
2023-06-17T07:25:16.890Z,8.50
2023-06-17T07:27:44.845Z,9.50
2023-06-17T07:30:13.957Z,9.20
2023-06-17T07:32:42.368Z,9.70
2023-06-17T07:35:11.055Z,9.60
2023-06-17T07:37:39.712Z,8.70
2023-06-17T07:40:14.178Z,9.90
2023-06-17T07:42:45.713Z,9.50
2023-06-17T07:45:13.790Z,9.70
2023-06-17T07:47:42.066Z,9.30
2023-06-17T07:50:11.261Z,9.80
2023-06-17T07:52:39.371Z,9.60
2023-06-17T07:55:11.931Z,8.90
2023-06-17T07:57:40.050Z,8.50
2023-06-17T08:00:14.031Z,9.40
2023-06-17T08:02:45.338Z,9.60
2023-06-17T08:05:13.992Z,9.00
2023-06-17T08:07:42.202Z,9.70
2023-06-17T08:10:11.593Z,8.80
2023-06-17T08:12:39.781Z,9.50
2023-06-17T08:15:09.351Z,9.40
2023-06-17T08:17:37.605Z,9.80
2023-06-17T08:20:06.581Z,9.50
2023-06-17T08:22:34.689Z,8.90
2023-06-17T08:25:02.698Z,9.00
2023-06-17T08:27:32.285Z,9.90
2023-06-17T08:30:00.963Z,8.80
2023-06-17T08:32:29.117Z,9.70
2023-06-17T08:34:57.459Z,10.40
2023-06-17T08:37:26.100Z,10.00
2023-06-17T08:39:53.998Z,9.50
2023-06-17T08:42:23.190Z,10.60
2023-06-17T08:44:52.974Z,10.40
2023-06-17T08:47:22.172Z,10.50
2023-06-17T08:49:50.869Z,9.40
2023-06-17T08:52:19.953Z,9.50
2023-06-17T08:54:49.564Z,9.40
2023-06-17T08:57:19.005Z,9.80
2023-06-17T08:59:47.546Z,10.60
2023-06-17T09:02:16.991Z,11.10
2023-06-17T09:04:45.346Z,11.40
2023-06-17T09:07:14.055Z,10.50
2023-06-17T09:09:50.032Z,8.70
2023-06-17T09:12:18.057Z,11.30
2023-06-17T09:14:46.345Z,10.30
2023-06-17T09:17:29.701Z,11.90
2023-06-17T09:22:27.750Z,10.50
2023-06-17T09:25:00.049Z,11.70
2023-06-17T09:27:28.790Z,11.60
2023-06-17T09:30:07.995Z,11.50
2023-06-17T09:32:41.349Z,11.60
2023-06-17T09:35:17.023Z,9.00
2023-06-17T09:38:02.475Z,10.00
2023-06-17T09:40:35.403Z,9.60
2023-06-17T09:43:25.117Z,11.70
2023-06-17T09:45:57.264Z,13.10
2023-06-17T09:48:31.723Z,11.00
2023-06-17T09:51:00.790Z,11.10
2023-06-17T09:53:31.548Z,9.70
2023-06-17T09:56:01.296Z,8.90
2023-06-17T09:58:32.485Z,7.80
2023-06-17T10:01:07.307Z,8.00
2023-06-17T10:03:36.659Z,7.80
2023-06-17T10:06:12.576Z,10.00
2023-06-17T10:08:43.397Z,8.70
2023-06-17T10:11:18.913Z,9.50
2023-06-17T10:14:08.434Z,11.10
2023-06-17T10:16:41.385Z,10.20
2023-06-17T10:19:13.281Z,8.60
2023-06-17T10:21:46.793Z,10.60
2023-06-17T10:24:17.012Z,10.40
2023-06-17T10:29:13.705Z,8.40
2023-06-17T10:31:44.184Z,9.20
2023-06-17T10:34:17.634Z,8.70
2023-06-17T10:36:58.599Z,8.80
2023-06-17T10:39:26.753Z,8.70
2023-06-17T10:41:57.325Z,7.30
2023-06-17T10:44:29.540Z,8.90
2023-06-17T10:46:58.198Z,8.80
2023-06-17T10:49:26.496Z,7.20
2023-06-17T10:52:00.892Z,11.00
2023-06-17T10:54:31.871Z,10.50
2023-06-17T10:57:05.499Z,11.40
2023-06-17T10:59:33.976Z,10.80
2023-06-17T11:02:10.833Z,10.90
2023-06-17T11:04:42.326Z,10.70
2023-06-17T11:07:10.851Z,8.60
2023-06-17T11:09:38.961Z,9.50
2023-06-17T11:12:09.120Z,9.10
2023-06-17T11:17:09.537Z,9.50
2023-06-17T11:19:37.967Z,9.00
2023-06-17T11:22:08.416Z,10.40
2023-06-17T11:24:37.253Z,8.90
2023-06-17T11:27:07.167Z,10.20
2023-06-17T11:29:35.828Z,9.80
2023-06-17T11:32:04.123Z,9.50
2023-06-17T11:34:35.138Z,8.50
2023-06-17T11:37:07.903Z,9.60
2023-06-17T11:39:39.196Z,11.80
2023-06-17T11:42:08.856Z,10.00
2023-06-17T11:44:37.922Z,9.30
2023-06-17T11:47:08.733Z,9.60
2023-06-17T11:49:42.719Z,8.20
2023-06-17T11:52:11.308Z,10.20
2023-06-17T11:54:53.460Z,9.90
2023-06-17T11:57:27.006Z,9.30
2023-06-17T12:00:06.399Z,8.80
2023-06-17T12:02:41.027Z,11.10
2023-06-17T12:05:10.605Z,9.40
2023-06-17T12:07:42.565Z,8.10
2023-06-17T12:10:13.304Z,9.50
2023-06-17T12:12:42.638Z,9.60
2023-06-17T12:15:16.529Z,8.40
2023-06-17T12:17:47.863Z,8.00
2023-06-17T12:20:18.227Z,9.50
2023-06-17T12:22:49.011Z,7.80
2023-06-17T12:25:17.751Z,8.40
2023-06-17T12:27:46.068Z,8.70
2023-06-17T12:30:15.524Z,9.00
2023-06-17T12:32:44.782Z,8.10
2023-06-17T12:35:13.578Z,7.40
2023-06-17T12:37:42.896Z,6.60
2023-06-17T12:40:12.814Z,6.10
2023-06-17T12:42:42.014Z,7.60
2023-06-17T12:45:11.046Z,8.30
2023-06-17T12:47:39.874Z,7.00
2023-06-17T12:50:08.708Z,7.50
2023-06-17T12:52:37.530Z,7.60
2023-06-17T12:55:06.485Z,7.30
2023-06-17T12:57:34.812Z,7.70
2023-06-17T13:00:06.241Z,6.70
2023-06-17T13:02:37.248Z,6.60
2023-06-17T13:05:06.783Z,6.10
2023-06-17T13:07:34.825Z,7.10
2023-06-17T13:10:03.470Z,6.00
2023-06-17T13:12:31.987Z,7.60
2023-06-17T13:15:00.663Z,6.10
2023-06-17T13:17:28.815Z,6.70
2023-06-17T13:19:57.565Z,6.50
2023-06-17T13:22:27.036Z,7.80
2023-06-17T13:24:55.224Z,6.60
2023-06-17T13:27:24.096Z,6.60
2023-06-17T13:29:52.472Z,7.10
2023-06-17T13:32:20.556Z,7.70
2023-06-17T13:34:48.662Z,7.60
2023-06-17T13:37:16.827Z,6.10
2023-06-17T13:39:45.140Z,7.20
2023-06-17T13:42:13.500Z,7.00
2023-06-17T13:44:45.556Z,5.90
2023-06-17T13:47:15.818Z,5.80
2023-06-17T13:52:13.474Z,7.30
2023-06-17T13:54:41.522Z,5.90
2023-06-17T13:57:11.872Z,6.90
2023-06-17T13:59:41.003Z,7.60
2023-06-17T14:02:10.435Z,8.70
2023-06-17T14:04:38.802Z,7.10
2023-06-17T14:07:07.185Z,7.90
2023-06-17T14:09:35.499Z,7.80
2023-06-17T14:12:04.284Z,7.60
2023-06-17T14:14:32.569Z,8.10
2023-06-17T14:17:00.894Z,6.90
2023-06-17T14:19:30.318Z,7.70
2023-06-17T14:22:07.069Z,7.30
2023-06-17T14:24:39.602Z,7.30
2023-06-17T14:27:14.830Z,7.40
2023-06-17T14:29:42.874Z,6.30
2023-06-17T14:32:11.144Z,6.00
2023-06-17T14:34:39.306Z,6.60
2023-06-17T14:37:07.712Z,6.00
2023-06-17T14:39:36.266Z,6.70
2023-06-17T14:42:04.698Z,6.90
2023-06-17T14:44:32.758Z,7.40
2023-06-17T14:47:01.233Z,7.10
2023-06-17T14:49:29.477Z,6.10
2023-06-17T14:51:57.855Z,6.80
2023-06-17T14:54:26.137Z,5.90
2023-06-17T14:56:54.254Z,6.40
2023-06-17T14:59:22.481Z,5.20
2023-06-17T15:01:50.448Z,6.60
2023-06-17T15:04:21.200Z,6.50
2023-06-17T15:06:49.375Z,6.60
2023-06-17T15:09:26.922Z,6.10
2023-06-17T15:11:57.887Z,6.60
2023-06-17T15:14:28.350Z,6.10
2023-06-17T15:16:56.505Z,6.60
2023-06-17T15:19:24.662Z,6.30
2023-06-17T15:21:53.144Z,6.80
2023-06-17T15:24:21.342Z,6.90
2023-06-17T15:26:49.512Z,5.80
2023-06-17T15:29:17.781Z,6.00
2023-06-17T15:31:46.048Z,6.90
2023-06-17T15:34:14.337Z,5.50
2023-06-17T15:36:42.421Z,5.90
2023-06-17T15:39:19.821Z,6.20
2023-06-17T15:41:48.930Z,6.00
2023-06-17T15:44:17.415Z,6.10
2023-06-17T15:46:46.036Z,6.10
2023-06-17T15:49:15.044Z,6.60
2023-06-17T15:51:43.164Z,6.40
2023-06-17T15:54:11.937Z,7.00
2023-06-17T15:56:40.467Z,5.70
2023-06-17T15:59:08.797Z,6.50
2023-06-17T16:01:37.039Z,5.50
2023-06-17T16:04:33.250Z,5.40
2023-06-17T16:07:03.756Z,6.00
2023-06-17T16:09:34.347Z,5.60
2023-06-17T16:12:04.303Z,6.60
2023-06-17T16:14:33.980Z,6.80
2023-06-17T16:17:04.429Z,5.60
2023-06-17T16:19:33.166Z,6.40
2023-06-17T16:22:03.312Z,6.40
2023-06-17T16:27:00.902Z,7.00
2023-06-17T16:29:29.348Z,6.40
2023-06-17T16:31:57.436Z,6.80
2023-06-17T16:34:25.447Z,6.20
2023-06-17T16:36:53.484Z,6.30
2023-06-17T16:39:21.739Z,7.00
2023-06-17T16:41:49.803Z,6.30
2023-06-17T16:44:18.397Z,6.20
2023-06-17T16:46:48.234Z,6.10
2023-06-17T16:49:16.484Z,6.30
2023-06-17T16:51:45.891Z,6.10
2023-06-17T16:54:14.058Z,7.00
2023-06-17T16:56:42.347Z,5.80
2023-06-17T16:59:10.609Z,6.00
2023-06-17T17:01:40.184Z,6.40
2023-06-17T17:04:13.756Z,5.70
2023-06-17T17:06:43.369Z,5.40
2023-06-17T17:09:11.609Z,6.00
2023-06-17T17:11:40.283Z,6.80
2023-06-17T17:14:09.434Z,5.60
2023-06-17T17:16:37.791Z,5.90
2023-06-17T17:19:06.265Z,6.80
2023-06-17T17:21:35.292Z,5.30
2023-06-17T17:24:06.217Z,6.30
2023-06-17T17:26:35.271Z,5.90
2023-06-17T17:29:03.970Z,6.50
2023-06-17T17:31:32.155Z,5.50
2023-06-17T17:34:00.197Z,5.10
2023-06-17T17:36:28.729Z,6.10
2023-06-17T17:38:56.778Z,6.00
2023-06-17T17:41:26.817Z,5.50
2023-06-17T17:43:55.042Z,5.70
2023-06-17T17:46:23.270Z,6.20
2023-06-17T17:48:51.498Z,5.40
2023-06-17T17:51:20.200Z,4.90
2023-06-17T17:53:48.396Z,5.40
2023-06-17T17:56:16.631Z,5.60
2023-06-17T17:58:44.759Z,5.40
2023-06-17T18:01:12.815Z,6.30
2023-06-17T18:03:41.056Z,6.30
2023-06-17T18:06:09.341Z,6.10
2023-06-17T18:08:37.446Z,6.20
2023-06-17T18:11:05.883Z,5.50
2023-06-17T18:13:33.895Z,5.90
2023-06-17T18:16:02.853Z,5.70
2023-06-17T18:18:31.137Z,5.80
2023-06-17T18:20:59.171Z,6.00
2023-06-17T18:23:27.196Z,5.90
2023-06-17T18:25:57.175Z,5.30
2023-06-17T18:28:25.166Z,5.10
2023-06-17T18:30:53.834Z,5.50
2023-06-17T18:33:21.904Z,5.40
2023-06-17T18:35:50.491Z,5.20
2023-06-17T18:38:18.661Z,6.30
2023-06-17T18:40:47.654Z,8.10
2023-06-17T18:43:15.830Z,7.50
2023-06-17T18:45:44.161Z,7.80
2023-06-17T18:48:12.126Z,5.80
2023-06-17T18:50:40.862Z,6.10
2023-06-17T18:53:09.481Z,6.10
2023-06-17T18:55:38.755Z,6.20
2023-06-17T18:58:07.749Z,6.20
2023-06-17T19:00:37.139Z,6.20
2023-06-17T19:03:05.934Z,6.40
2023-06-17T19:05:34.537Z,5.30
2023-06-17T19:08:02.537Z,5.40
2023-06-17T19:10:30.698Z,5.60
2023-06-17T19:12:59.023Z,4.90
2023-06-17T19:15:27.044Z,5.30
2023-06-17T19:18:01.982Z,4.70
2023-06-17T19:20:30.325Z,4.20
2023-06-17T19:22:58.354Z,4.50
2023-06-17T19:25:27.532Z,4.20
2023-06-17T19:27:55.655Z,3.60
2023-06-17T19:30:24.083Z,3.70
2023-06-17T19:32:52.615Z,3.70
2023-06-17T19:35:21.442Z,3.80
2023-06-17T19:37:49.596Z,3.50
2023-06-17T19:40:17.764Z,4.00
2023-06-17T19:42:45.865Z,4.60
2023-06-17T19:45:14.106Z,4.90
2023-06-17T19:47:42.827Z,4.60
2023-06-17T19:50:11.749Z,4.80
2023-06-17T19:52:39.909Z,4.20
2023-06-17T19:55:08.557Z,4.90
2023-06-17T19:57:36.918Z,4.20
2023-06-17T20:00:06.028Z,5.20
2023-06-17T20:02:40.747Z,4.30
2023-06-17T20:05:09.861Z,4.20
2023-06-17T20:07:38.300Z,4.10
2023-06-17T20:10:07.113Z,3.90
2023-06-17T20:12:35.186Z,4.50
2023-06-17T20:15:03.589Z,5.00
2023-06-17T20:17:31.949Z,4.50
2023-06-17T20:20:00.225Z,4.60
2023-06-17T20:22:28.891Z,4.80
2023-06-17T20:24:57.181Z,5.00
2023-06-17T20:27:25.353Z,5.60
2023-06-17T20:29:53.427Z,5.80
2023-06-17T20:32:21.706Z,6.20
2023-06-17T20:34:49.886Z,6.60
2023-06-17T20:37:18.040Z,6.20
2023-06-17T20:39:46.066Z,7.00
2023-06-17T20:42:14.247Z,6.10
2023-06-17T20:44:42.880Z,6.40
2023-06-17T20:47:11.072Z,5.40
2023-06-17T20:49:39.197Z,4.90
2023-06-17T20:52:07.920Z,5.40
2023-06-17T20:54:36.395Z,5.10
2023-06-17T20:57:05.058Z,5.40
2023-06-17T20:59:33.353Z,4.50
2023-06-17T21:02:01.575Z,5.00
2023-06-17T21:04:29.722Z,4.60
2023-06-17T21:06:57.909Z,4.60
2023-06-17T21:09:27.043Z,4.60
2023-06-17T21:11:55.189Z,4.80
2023-06-17T21:14:23.316Z,4.50
2023-06-17T21:16:52.455Z,4.80
2023-06-17T21:19:20.905Z,4.80
2023-06-17T21:21:49.072Z,4.20
2023-06-17T21:24:17.283Z,4.10
2023-06-17T21:26:45.650Z,4.10
2023-06-17T21:29:13.608Z,4.70
2023-06-17T21:31:41.646Z,4.70
2023-06-17T21:34:09.839Z,4.10
2023-06-17T21:36:38.427Z,4.80
2023-06-17T21:39:06.629Z,4.00
2023-06-17T21:41:34.879Z,4.30
2023-06-17T21:44:03.000Z,4.30
2023-06-17T21:46:32.301Z,4.50
2023-06-17T21:49:00.399Z,5.10
2023-06-17T21:51:28.830Z,4.80
2023-06-17T21:53:57.423Z,4.90
2023-06-17T21:56:25.476Z,4.90
2023-06-17T21:58:53.536Z,4.50
2023-06-17T22:01:22.125Z,5.00
2023-06-17T22:03:50.570Z,5.60
2023-06-17T22:06:19.068Z,4.40
2023-06-17T22:08:47.433Z,4.80
2023-06-17T22:11:15.709Z,4.80
2023-06-17T22:13:44.035Z,5.60
2023-06-17T22:16:12.665Z,5.60
2023-06-17T22:18:41.068Z,5.30
2023-06-17T22:21:09.124Z,5.10
2023-06-17T22:23:37.078Z,5.70
2023-06-17T22:26:05.253Z,5.30
2023-06-17T22:28:33.460Z,5.30
2023-06-17T22:31:01.572Z,6.00
2023-06-17T22:33:29.623Z,5.80
2023-06-17T22:35:57.880Z,5.20
2023-06-17T22:38:26.152Z,5.20
2023-06-17T22:40:54.587Z,5.40
2023-06-17T22:43:22.629Z,4.90
2023-06-17T22:45:50.787Z,5.50
2023-06-17T22:48:19.419Z,6.00
2023-06-17T22:50:47.566Z,6.20
2023-06-17T22:53:15.726Z,5.70
2023-06-17T22:55:44.360Z,5.50
2023-06-17T22:58:12.322Z,5.50
2023-06-17T23:00:40.604Z,5.10
2023-06-17T23:03:09.151Z,4.90
2023-06-17T23:05:37.556Z,5.10
2023-06-17T23:08:05.643Z,4.80
2023-06-17T23:10:33.850Z,4.30
2023-06-17T23:13:02.451Z,4.00
2023-06-17T23:15:30.469Z,4.20
2023-06-17T23:17:58.750Z,4.00
2023-06-17T23:20:26.952Z,4.50
2023-06-17T23:22:55.481Z,5.00
2023-06-17T23:25:27.656Z,4.20
2023-06-17T23:27:57.824Z,4.40
2023-06-17T23:30:26.709Z,5.00
2023-06-17T23:32:54.811Z,4.30
2023-06-17T23:35:22.914Z,4.20
2023-06-17T23:37:51.554Z,4.10
2023-06-17T23:40:20.220Z,4.10
2023-06-17T23:42:48.396Z,4.30
2023-06-17T23:45:16.831Z,4.80
2023-06-17T23:47:45.991Z,3.70
2023-06-17T23:50:14.354Z,3.70
2023-06-17T23:52:42.830Z,3.80
2023-06-17T23:55:11.329Z,3.60
2023-06-17T23:57:39.503Z,4.00
